Time;durP1;ratioP1;P1;durP2;ratioP2;P2;SDS_P1;SDS_P2;PMS_P1;PMS_P2;Temp;Humidity;BMP_temperature;BMP_pressure;BME280_temperature;BME280_humidity;BME280_pressure;Samples;Min_cycle;Max_cycle;Signal;HPM_P1;HPM_P2
2021/12/18 00:00:45;;;;;;;5.97;2.40;;;;;;;7.42;100.00;104003.00;4957749;28;20031;-75
2021/12/18 00:03:10;;;;;;;4.25;2.60;;;;;;;7.31;100.00;104011.19;4944491;28;20054;-75
2021/12/18 00:05:35;;;;;;;6.72;2.42;;;;;;;7.28;100.00;103986.28;4961982;28;20070;-74
2021/12/18 00:08:01;;;;;;;4.20;2.15;;;;;;;7.37;100.00;104003.97;4962022;28;20031;-74
2021/12/18 00:10:26;;;;;;;6.28;2.33;;;;;;;7.41;100.00;104000.38;4960226;28;20031;-74
2021/12/18 00:12:52;;;;;;;5.18;2.60;;;;;;;7.41;100.00;104001.25;4962648;28;20034;-75
2021/12/18 00:15:19;;;;;;;6.28;2.25;;;;;;;7.50;100.00;104013.59;4958096;28;20027;-75
2021/12/18 00:17:45;;;;;;;6.13;2.67;;;;;;;7.53;100.00;104004.66;4961264;28;20085;-74
2021/12/18 00:20:11;;;;;;;8.25;2.53;;;;;;;7.39;100.00;103983.47;4964750;28;20058;-74
2021/12/18 00:22:36;;;;;;;6.05;2.40;;;;;;;7.51;100.00;104001.97;4959889;28;20027;-75
2021/12/18 00:25:03;;;;;;;5.35;2.65;;;;;;;7.57;100.00;103991.22;4951247;28;20598;-75
2021/12/18 00:27:28;;;;;;;8.38;2.92;;;;;;;7.49;100.00;103980.63;4962899;28;20094;-75
2021/12/18 00:29:53;;;;;;;6.90;2.65;;;;;;;7.55;100.00;103993.03;4968402;28;20601;-74
2021/12/18 00:32:19;;;;;;;5.95;2.60;;;;;;;7.48;100.00;103983.31;4965482;28;20683;-74
2021/12/18 00:34:44;;;;;;;6.32;3.00;;;;;;;7.59;100.00;103980.47;4969444;28;20580;-75
2021/12/18 00:37:10;;;;;;;7.82;2.60;;;;;;;7.57;100.00;103988.53;4966488;28;20073;-75
2021/12/18 00:39:40;;;;;;;7.22;2.90;;;;;;;7.53;100.00;103983.28;4971504;28;20034;-74
2021/12/18 00:42:23;;;;;;;7.25;2.65;;;;;;;7.46;100.00;103969.97;4966947;28;20589;-75
2021/12/18 00:44:48;;;;;;;6.93;2.72;;;;;;;7.57;100.00;103979.63;4969847;28;20023;-75
2021/12/18 00:47:13;;;;;;;5.75;2.88;;;;;;;7.49;100.00;103966.38;4966785;28;20031;-75
2021/12/18 00:49:39;;;;;;;7.22;2.78;;;;;;;7.55;100.00;103973.44;4966861;28;20565;-75
2021/12/18 00:52:05;;;;;;;6.93;3.03;;;;;;;7.49;100.00;103977.06;4967301;28;20037;-74
2021/12/18 00:54:31;;;;;;;4.97;2.28;;;;;;;7.46;100.00;103967.31;4968639;28;20038;-75
2021/12/18 00:56:56;;;;;;;6.78;2.40;;;;;;;7.43;100.00;103958.44;4962357;28;20030;-75
2021/12/18 00:59:22;;;;;;;6.63;3.10;;;;;;;7.48;100.00;103967.28;4950598;28;20508;-75
2021/12/18 01:01:47;;;;;;;8.23;3.13;;;;;;;7.48;100.00;103970.84;4966255;28;20030;-75
2021/12/18 01:04:13;;;;;;;7.05;2.45;;;;;;;7.50;100.00;103965.47;4966965;28;20034;-75
2021/12/18 01:06:38;;;;;;;7.22;3.28;;;;;;;7.52;100.00;103966.31;4968590;28;20458;-75
2021/12/18 01:09:04;;;;;;;6.95;3.40;;;;;;;7.43;100.00;103945.06;4961829;28;20118;-75
2021/12/18 01:11:41;;;;;;;7.82;3.38;;;;;;;7.51;100.00;103977.91;4947257;28;20093;-75
2021/12/18 01:14:43;;;;;;;7.47;3.50;;;;;;;7.44;100.00;103976.22;4965633;28;20039;-74
2021/12/18 01:25:04;;;;;;;9.23;4.30;;;;;;;7.42;100.00;103967.34;4967282;28;20097;-70
2021/12/18 01:27:29;;;;;;;9.43;3.80;;;;;;;7.32;100.00;103961.25;4965234;28;20031;-74
2021/12/18 01:29:55;;;;;;;9.65;4.57;;;;;;;7.29;100.00;103945.25;4967330;28;20130;-75
2021/12/18 01:32:20;;;;;;;10.65;5.00;;;;;;;7.32;100.00;103954.13;4965171;28;20087;-74
2021/12/18 01:34:46;;;;;;;8.32;3.80;;;;;;;7.41;100.00;103968.28;4967536;28;20066;-74
2021/12/18 01:37:11;;;;;;;9.75;4.45;;;;;;;7.34;100.00;103971.03;4946802;28;20101;-74
2021/12/18 01:39:37;;;;;;;10.13;4.18;;;;;;;7.25;100.00;103978.31;4964486;28;20031;-75
2021/12/18 01:42:34;;;;;;;8.93;4.15;;;;;;;7.25;100.00;103979.16;4963588;28;20046;-74
2021/12/18 01:45:10;;;;;;;9.57;4.35;;;;;;;7.28;100.00;103978.28;4949786;28;20042;-75
2021/12/18 01:53:06;;;;;;;8.20;4.25;;;;;;;7.10;100.00;103963.34;4965342;28;20454;-75
2021/12/18 01:55:34;;;;;;;7.00;3.42;;;;;;;7.25;100.00;103989.00;4948132;28;20023;-74
2021/12/18 01:58:00;;;;;;;9.73;3.42;;;;;;;7.26;100.00;103974.72;4949361;28;20022;-74
2021/12/18 02:00:31;;;;;;;6.28;3.20;;;;;;;7.22;100.00;103984.56;4949497;28;20041;-74
2021/12/18 02:02:57;;;;;;;6.80;3.17;;;;;;;7.31;100.00;103991.56;4962863;28;20046;-74
2021/12/18 02:05:23;;;;;;;5.75;2.78;;;;;;;7.31;100.00;103991.56;4964475;28;20057;-74
2021/12/18 02:07:48;;;;;;;5.03;2.92;;;;;;;7.33;100.00;103993.31;4963872;28;20037;-74
2021/12/18 02:10:26;;;;;;;6.80;3.22;;;;;;;7.35;100.00;103988.84;4955051;28;20038;-74
2021/12/18 02:13:00;;;;;;;7.72;3.53;;;;;;;7.30;100.00;103985.34;4960812;28;20042;-75
2021/12/18 02:20:56;;;;;;;5.93;3.30;;;;;;;7.32;100.00;103980.88;4945792;28;20109;-74
2021/12/18 02:23:22;;;;;;;8.80;3.72;;;;;;;7.33;100.00;103979.06;4960919;28;20435;-74
2021/12/18 02:25:47;;;;;;;7.97;3.83;;;;;;;7.30;100.00;103971.09;4959722;28;20026;-74
2021/12/18 02:28:18;;;;;;;9.02;3.50;;;;;;;7.29;100.00;103975.56;4926338;28;20042;-74
2021/12/18 02:30:44;;;;;;;7.63;3.58;;;;;;;7.24;100.00;103969.38;4941933;28;20034;-74
2021/12/18 02:33:10;;;;;;;6.30;3.30;;;;;;;7.24;100.00;103965.84;4945167;28;20450;-74
2021/12/18 02:35:42;;;;;;;8.18;3.92;;;;;;;7.20;100.00;103965.88;4960066;28;20027;-74
2021/12/18 02:38:15;;;;;;;8.82;4.15;;;;;;;7.30;100.00;103971.09;4958274;28;20066;-75
2021/12/18 02:41:28;;;;;;;7.90;4.28;;;;;;;7.23;100.00;103964.06;4940374;28;20129;-75
2021/12/18 02:43:34;;;;;;;6.95;3.58;;;;;;;7.30;100.00;103969.31;4946121;28;20054;-75
2021/12/18 02:46:06;;;;;;;11.73;4.60;;;;;;;7.27;100.00;103971.16;4940852;28;20027;-73
2021/12/18 02:48:32;;;;;;;7.47;3.83;;;;;;;7.30;100.00;103960.38;4959851;28;20022;-74
2021/12/18 02:50:58;;;;;;;11.45;5.03;;;;;;;7.33;100.00;103955.00;4943596;28;20077;-75
2021/12/18 02:53:24;;;;;;;8.50;4.38;;;;;;;7.29;100.00;103953.28;4942888;28;20607;-74
2021/12/18 02:55:54;;;;;;;8.43;4.30;;;;;;;7.32;100.00;103950.56;4958390;28;21959;-74
2021/12/18 02:58:20;;;;;;;9.98;4.47;;;;;;;7.32;100.00;103953.22;4955544;28;20027;-74
2021/12/18 03:00:45;;;;;;;8.05;4.03;;;;;;;7.34;100.00;103946.97;4958876;28;20065;-74
2021/12/18 03:03:11;;;;;;;11.07;4.45;;;;;;;7.27;100.00;103937.28;4943104;28;20027;-74
2021/12/18 03:05:45;;;;;;;8.07;3.92;;;;;;;7.33;100.00;103939.88;4962468;28;20502;-74
2021/12/18 03:08:18;;;;;;;9.80;4.75;;;;;;;7.36;100.00;103941.59;4942715;28;20031;-74
2021/12/18 03:24:21;;;;;;;9.95;4.55;;;;;;;7.17;100.00;103917.81;4962205;28;20485;-75
2021/12/18 03:26:46;;;;;;;11.35;5.07;;;;;;;7.09;100.00;103916.16;4955866;28;20508;-75
2021/12/18 03:29:12;;;;;;;10.75;4.88;;;;;;;7.25;100.00;103940.88;4954260;28;20031;-74
2021/12/18 03:31:37;;;;;;;9.88;4.65;;;;;;;7.29;100.00;103938.13;4942394;28;20039;-75
2021/12/18 03:34:02;;;;;;;8.77;4.70;;;;;;;7.34;100.00;103943.41;4958336;28;20035;-74
2021/12/18 03:36:28;;;;;;;13.25;4.38;;;;;;;7.40;100.00;103934.44;4960538;28;20034;-74
2021/12/18 03:38:53;;;;;;;10.70;5.07;;;;;;;7.32;100.00;103942.53;4940905;28;20155;-74
2021/12/18 03:41:18;;;;;;;8.73;4.13;;;;;;;7.32;100.00;103940.78;4943416;28;20034;-74
2021/12/18 03:43:44;;;;;;;10.50;4.28;;;;;;;7.32;100.00;103932.75;4956615;28;20132;-74
2021/12/18 03:46:09;;;;;;;10.00;4.97;;;;;;;7.28;100.00;103923.00;4942902;28;20077;-74
2021/12/18 03:48:34;;;;;;;10.38;5.05;;;;;;;7.40;100.00;103931.75;4947245;28;20109;-74
2021/12/18 03:51:00;;;;;;;11.40;5.38;;;;;;;7.36;100.00;103933.59;4955706;28;20106;-74
2021/12/18 03:53:25;;;;;;;9.85;4.72;;;;;;;7.35;100.00;103942.50;4958355;28;20030;-75
2021/12/18 03:55:50;;;;;;;10.48;4.50;;;;;;;7.34;100.00;103922.03;4946536;28;20516;-74
2021/12/18 03:58:16;;;;;;;10.93;4.43;;;;;;;7.31;100.00;103935.44;4957968;28;20034;-74
2021/12/18 04:00:41;;;;;;;16.08;5.75;;;;;;;7.26;100.00;103927.50;4962282;28;20058;-74
2021/12/18 04:03:06;;;;;;;13.18;5.30;;;;;;;7.22;100.00;103924.91;4960240;28;20042;-75
2021/12/18 04:05:32;;;;;;;12.23;4.43;;;;;;;7.14;100.00;103927.69;4962400;28;20054;-75
2021/12/18 04:08:08;;;;;;;12.90;5.13;;;;;;;7.10;100.00;103926.81;4946448;28;20118;-74
2021/12/18 04:10:35;;;;;;;13.00;5.13;;;;;;;7.13;100.00;103926.78;4962001;28;20046;-74
2021/12/18 04:13:00;;;;;;;13.43;5.22;;;;;;;7.21;100.00;103918.66;4962785;28;20423;-74
2021/12/18 04:15:26;;;;;;;12.93;5.25;;;;;;;7.28;100.00;103925.69;4958767;28;20761;-73
2021/12/18 04:17:51;;;;;;;15.43;5.82;;;;;;;7.18;100.00;103914.25;4963723;28;20066;-74
2021/12/18 04:20:16;;;;;;;11.15;4.97;;;;;;;7.26;100.00;103930.16;4962592;28;20022;-74
2021/12/18 04:22:42;;;;;;;13.15;4.78;;;;;;;7.28;100.00;103922.13;4944947;28;20031;-74
2021/12/18 04:25:07;;;;;;;11.52;4.75;;;;;;;7.18;100.00;103924.03;4958787;28;20022;-74
2021/12/18 04:27:33;;;;;;;10.20;4.90;;;;;;;7.25;100.00;103943.56;4961186;28;20043;-74
2021/12/18 04:29:58;;;;;;;12.50;5.00;;;;;;;7.27;100.00;103942.63;4962871;28;20059;-75
2021/12/18 04:32:23;;;;;;;16.10;5.22;;;;;;;7.02;100.00;103928.69;4961115;28;20088;-75
2021/12/18 04:34:49;;;;;;;13.57;5.50;;;;;;;7.11;100.00;103936.59;4960934;28;20066;-74
2021/12/18 04:37:14;;;;;;;11.93;4.88;;;;;;;7.08;100.00;103944.66;4943413;28;20026;-75
2021/12/18 04:39:39;;;;;;;9.20;4.75;;;;;;;7.13;100.00;103934.78;4950581;28;20531;-74
2021/12/18 04:42:05;;;;;;;11.27;4.13;;;;;;;7.29;100.00;103955.94;4946299;28;20441;-75
2021/12/18 04:44:30;;;;;;;9.38;4.18;;;;;;;7.11;100.00;103943.75;4960631;28;20190;-75
2021/12/18 04:46:56;;;;;;;7.88;4.28;;;;;;;7.16;100.00;103947.22;4942585;28;20033;-74
2021/12/18 04:49:21;;;;;;;10.63;4.75;;;;;;;7.14;100.00;103949.06;4945249;28;20114;-74
2021/12/18 04:51:47;;;;;;;9.05;4.40;;;;;;;7.15;100.00;103942.81;4964669;28;20034;-75
2021/12/18 04:54:12;;;;;;;12.40;4.53;;;;;;;7.24;100.00;103950.69;4960651;28;20069;-74
2021/12/18 04:56:38;;;;;;;8.35;3.95;;;;;;;7.06;100.00;103938.44;4960416;28;20034;-74
2021/12/18 04:59:04;;;;;;;7.57;3.85;;;;;;;7.07;100.00;103940.22;4946731;28;20039;-75
2021/12/18 05:01:35;;;;;;;11.50;4.88;;;;;;;7.03;100.00;103930.47;4961006;28;20481;-75
2021/12/18 05:04:00;;;;;;;10.30;4.13;;;;;;;7.15;100.00;103949.03;4963798;28;20042;-75
2021/12/18 05:06:29;;;;;;;12.45;4.32;;;;;;;7.12;100.00;103942.84;4961297;28;20039;-74
2021/12/18 05:08:54;;;;;;;12.10;4.43;;;;;;;7.13;100.00;103960.66;4960932;28;20034;-75
2021/12/18 05:11:19;;;;;;;11.20;3.97;;;;;;;7.14;100.00;103954.41;4964749;28;20057;-75
2021/12/18 05:13:45;;;;;;;10.27;4.10;;;;;;;7.20;100.00;103960.53;4962745;28;20026;-74
2021/12/18 05:16:10;;;;;;;8.13;3.80;;;;;;;7.26;100.00;103962.22;4961196;28;20046;-75
2021/12/18 05:18:35;;;;;;;11.85;4.70;;;;;;;7.19;100.00;103952.53;4959970;28;20030;-74
2021/12/18 05:21:01;;;;;;;10.82;4.40;;;;;;;7.20;100.00;103957.88;4957162;28;20082;-75
2021/12/18 05:23:26;;;;;;;9.20;4.13;;;;;;;7.22;100.00;103957.81;4960508;28;20537;-75
2021/12/18 05:25:51;;;;;;;13.82;4.80;;;;;;;7.26;100.00;103962.22;4964315;28;20074;-74
2021/12/18 05:28:17;;;;;;;10.55;4.13;;;;;;;7.12;100.00;103941.03;4960680;28;20070;-74
2021/12/18 05:30:42;;;;;;;13.45;4.85;;;;;;;7.25;100.00;103955.13;4944625;28;20106;-75
2021/12/18 05:33:07;;;;;;;9.48;4.38;;;;;;;7.29;100.00;103961.28;4961092;28;20058;-75
2021/12/18 05:35:33;;;;;;;10.98;5.15;;;;;;;7.29;100.00;103966.63;4960118;28;20041;-74
2021/12/18 05:38:04;;;;;;;11.40;4.32;;;;;;;7.25;100.00;103954.25;4958713;28;20063;-74
2021/12/18 05:40:31;;;;;;;13.80;4.72;;;;;;;7.30;100.00;103963.97;4960867;28;20102;-75
2021/12/18 05:42:57;;;;;;;13.15;4.50;;;;;;;7.25;100.00;103952.44;4943437;28;20046;-74
2021/12/18 05:45:22;;;;;;;14.75;6.25;;;;;;;7.22;100.00;103955.16;4962415;28;20531;-74
2021/12/18 05:47:47;;;;;;;15.30;5.03;;;;;;;7.26;100.00;103950.69;4942679;28;20118;-74
2021/12/18 05:50:15;;;;;;;12.70;4.32;;;;;;;7.26;100.00;103958.69;4941979;28;20059;-74
2021/12/18 05:52:41;;;;;;;10.35;4.68;;;;;;;7.23;100.00;103956.94;4956786;28;20026;-74
2021/12/18 05:55:07;;;;;;;13.73;5.00;;;;;;;7.24;100.00;103952.47;4961633;28;20026;-75
2021/12/18 05:57:32;;;;;;;14.75;4.75;;;;;;;7.13;100.00;103941.94;4959060;28;20439;-74
2021/12/18 05:59:57;;;;;;;16.25;4.90;;;;;;;7.20;100.00;103948.94;4961977;28;20026;-74
2021/12/18 06:02:23;;;;;;;13.57;5.30;;;;;;;7.22;100.00;103955.16;4960462;28;20034;-74
2021/12/18 06:04:48;;;;;;;14.25;4.75;;;;;;;7.26;100.00;103956.03;4957531;28;20023;-74
2021/12/18 06:07:27;;;;;;;15.10;4.78;;;;;;;7.19;100.00;103944.50;4960865;28;20037;-74
2021/12/18 06:09:53;;;;;;;13.95;4.45;;;;;;;7.26;100.00;103948.88;4943376;28;20865;-75
2021/12/18 06:12:18;;;;;;;14.07;4.32;;;;;;;7.29;100.00;103950.59;4961472;28;20039;-75
2021/12/18 06:14:44;;;;;;;15.35;4.55;;;;;;;7.27;100.00;103939.94;4961454;28;20042;-75
2021/12/18 06:17:09;;;;;;;14.57;5.30;;;;;;;7.26;100.00;103943.53;4959055;28;20122;-75
2021/12/18 06:19:34;;;;;;;14.48;5.05;;;;;;;7.18;100.00;103918.69;4959197;28;20032;-75
2021/12/18 06:21:59;;;;;;;16.95;5.40;;;;;;;7.23;100.00;103932.00;4960461;28;20026;-74
2021/12/18 06:24:28;;;;;;;17.75;5.10;;;;;;;7.18;100.00;103930.28;4942521;28;20035;-75
2021/12/18 06:26:53;;;;;;;13.45;4.88;;;;;;;7.26;100.00;103937.31;4967778;28;20027;-75
2021/12/18 06:29:19;;;;;;;20.70;5.45;;;;;;;7.20;100.00;103936.47;4959077;28;20054;-75
2021/12/18 06:31:44;;;;;;;16.95;6.03;;;;;;;7.19;100.00;103933.81;4961695;28;20026;-74
2021/12/18 06:34:09;;;;;;;13.90;4.65;;;;;;;7.31;100.00;103938.09;4961966;28;20069;-75
2021/12/18 06:36:35;;;;;;;18.45;5.18;;;;;;;7.30;100.00;103936.34;4959292;28;20114;-74
2021/12/18 06:39:00;;;;;;;18.25;5.32;;;;;;;7.31;100.00;103930.97;4942715;28;20070;-75
2021/12/18 06:41:25;;;;;;;18.17;4.63;;;;;;;7.37;100.00;103940.69;4943392;28;20039;-74
2021/12/18 06:43:51;;;;;;;14.13;5.22;;;;;;;7.34;100.00;103938.97;4959927;28;20117;-74
2021/12/18 06:46:16;;;;;;;19.80;4.78;;;;;;;7.38;100.00;103945.13;4958628;28;20075;-75
2021/12/18 06:48:41;;;;;;;13.57;4.53;;;;;;;7.39;100.00;103952.25;4960652;28;20121;-74
2021/12/18 06:51:07;;;;;;;14.57;3.92;;;;;;;7.36;100.00;103949.63;4959234;28;20026;-74
2021/12/18 06:53:32;;;;;;;12.43;3.47;;;;;;;7.29;100.00;103947.94;4941767;28;20111;-75
2021/12/18 06:55:58;;;;;;;10.90;3.58;;;;;;;7.22;100.00;103943.59;4939472;28;20074;-74
2021/12/18 06:58:23;;;;;;;11.88;4.38;;;;;;;7.17;100.00;103946.31;4958477;28;20037;-74
2021/12/18 07:00:48;;;;;;;10.38;3.75;;;;;;;7.12;100.00;103951.72;4957690;28;20069;-74
2021/12/18 07:03:14;;;;;;;14.77;3.90;;;;;;;7.11;100.00;103949.09;4926444;28;20042;-74
2021/12/18 07:05:39;;;;;;;12.95;3.92;;;;;;;7.04;100.00;103922.44;4939830;28;20118;-74
2021/12/18 07:08:05;;;;;;;13.27;3.75;;;;;;;7.13;100.00;103940.13;4959870;28;20110;-74
2021/12/18 07:10:31;;;;;;;12.55;3.90;;;;;;;7.20;100.00;103954.28;4956738;28;20082;-74
2021/12/18 07:12:57;;;;;;;12.48;3.83;;;;;;;7.23;100.00;103951.59;4942900;28;20037;-75
2021/12/18 07:15:22;;;;;;;12.63;3.67;;;;;;;7.15;100.00;103940.13;4959857;28;20022;-74
2021/12/18 07:17:47;;;;;;;15.13;4.32;;;;;;;7.23;100.00;103959.59;4961870;28;20881;-74
2021/12/18 07:20:13;;;;;;;15.20;4.40;;;;;;;7.21;100.00;103958.72;4953337;28;20035;-74
2021/12/18 07:22:38;;;;;;;10.48;3.55;;;;;;;7.18;100.00;103942.75;4960491;28;20033;-74
2021/12/18 07:25:04;;;;;;;16.88;4.00;;;;;;;7.27;100.00;103952.44;4961465;28;20604;-75
2021/12/18 07:27:30;;;;;;;15.82;3.92;;;;;;;7.27;100.00;103952.44;4961424;28;20563;-74
2021/12/18 07:29:55;;;;;;;11.60;3.85;;;;;;;7.29;100.00;103956.84;4962472;28;20037;-74
2021/12/18 07:32:20;;;;;;;13.75;3.15;;;;;;;7.17;100.00;103955.22;4955372;28;20036;-74
2021/12/18 07:34:46;;;;;;;13.13;3.90;;;;;;;7.09;100.00;103945.56;4960327;28;20030;-75
2021/12/18 07:37:11;;;;;;;11.50;3.40;;;;;;;7.11;100.00;103957.97;4959102;28;20104;-74
2021/12/18 07:39:36;;;;;;;11.32;3.63;;;;;;;7.05;100.00;103956.28;4959976;28;20498;-74
2021/12/18 07:42:02;;;;;;;13.68;3.65;;;;;;;7.00;100.00;103965.25;4957260;28;20058;-74
2021/12/18 07:44:27;;;;;;;18.15;4.07;;;;;;;7.02;100.00;103967.00;4956719;28;20085;-73
2021/12/18 07:46:53;;;;;;;16.42;3.80;;;;;;;6.90;100.00;103965.38;4953204;28;20023;-74
2021/12/18 07:49:18;;;;;;;14.40;3.47;;;;;;;6.81;100.00;103964.59;4954972;28;20035;-74
2021/12/18 07:51:44;;;;;;;19.95;4.88;;;;;;;6.93;100.00;103961.75;4961284;28;20222;-74
2021/12/18 07:54:09;;;;;;;18.05;4.10;;;;;;;6.87;100.00;103954.72;4953713;28;20117;-73
2021/12/18 07:56:35;;;;;;;18.27;3.83;;;;;;;6.91;100.00;103963.56;4951555;28;20053;-74
2021/12/18 07:59:01;;;;;;;19.27;4.00;;;;;;;6.84;100.00;103954.75;4955539;28;20061;-74
2021/12/18 08:01:26;;;;;;;12.38;3.75;;;;;;;6.81;100.00;103951.25;4955231;28;20023;-74
2021/12/18 08:03:51;;;;;;;17.00;4.13;;;;;;;6.80;100.00;103965.50;4957002;28;20150;-74
2021/12/18 08:06:20;;;;;;;21.13;4.50;;;;;;;6.83;100.00;103965.47;4956608;28;20455;-74
2021/12/18 08:08:45;;;;;;;14.70;3.80;;;;;;;6.87;100.00;103961.88;4955178;28;20035;-74
2021/12/18 08:11:10;;;;;;;17.77;3.30;;;;;;;6.94;100.00;103968.00;4954317;28;20030;-74
2021/12/18 08:13:36;;;;;;;9.35;2.78;;;;;;;6.98;100.00;103962.59;4955016;28;20951;-73
2021/12/18 08:16:01;;;;;;;8.18;2.20;;;;;;;6.92;100.00;103959.13;4953905;28;20062;-74
2021/12/18 08:18:26;;;;;;;9.40;2.50;;;;;;;6.83;100.00;103952.13;4957311;28;20487;-75
2021/12/18 08:20:52;;;;;;;8.80;2.33;;;;;;;6.88;100.00;103958.28;4951954;28;20042;-74
2021/12/18 08:23:17;;;;;;;8.27;2.70;;;;;;;6.92;100.00;103967.13;4956073;28;20054;-75
2021/12/18 08:25:43;;;;;;;5.25;2.20;;;;;;;6.97;100.00;103968.84;4939448;28;20026;-74
2021/12/18 08:28:08;;;;;;;8.52;2.92;;;;;;;7.05;100.00;103963.41;4956950;28;20035;-75
2021/12/18 08:30:36;;;;;;;9.05;2.92;;;;;;;7.03;100.00;103960.75;4954584;28;20402;-74
2021/12/18 08:33:02;;;;;;;7.78;2.67;;;;;;;7.11;100.00;103971.34;4938730;28;20042;-74
2021/12/18 08:35:29;;;;;;;13.50;3.00;;;;;;;7.12;100.00;103965.09;4952663;28;20041;-74
2021/12/18 08:37:56;;;;;;;9.05;2.40;;;;;;;7.13;100.00;103966.00;4958430;28;21993;-74
2021/12/18 08:40:22;;;;;;;6.72;2.35;;;;;;;7.16;100.00;103968.59;4952842;28;20034;-74
2021/12/18 08:42:48;;;;;;;7.47;2.00;;;;;;;7.15;100.00;103959.72;4959872;28;20030;-74
2021/12/18 08:45:13;;;;;;;10.63;2.88;;;;;;;7.19;100.00;103963.22;4938220;28;20383;-74
2021/12/18 08:47:39;;;;;;;11.30;2.35;;;;;;;7.15;100.00;103965.06;4957131;28;20038;-74
2021/12/18 08:50:07;;;;;;;7.68;2.67;;;;;;;7.05;100.00;103948.25;4941151;28;20372;-74
2021/12/18 08:52:32;;;;;;;10.57;2.33;;;;;;;7.13;100.00;103953.50;4960390;28;20093;-74
2021/12/18 08:54:59;;;;;;;9.85;2.40;;;;;;;7.24;100.00;103958.69;4946341;28;20114;-74
2021/12/18 08:57:24;;;;;;;8.15;2.58;;;;;;;7.16;100.00;103953.47;4959191;28;20027;-74
2021/12/18 08:59:50;;;;;;;7.03;1.90;;;;;;;7.14;100.00;103959.75;4957812;28;20117;-74
2021/12/18 09:02:16;;;;;;;7.78;2.50;;;;;;;7.21;100.00;103956.06;4961428;28;20068;-74
2021/12/18 09:04:41;;;;;;;6.88;2.50;;;;;;;7.23;100.00;103958.72;4943763;28;20030;-74
2021/12/18 09:07:08;;;;;;;12.98;5.82;;;;;;;7.28;100.00;103960.44;4960964;28;20481;-74
2021/12/18 09:09:33;;;;;;;13.68;6.55;;;;;;;7.16;100.00;103957.91;4960396;28;20114;-74
2021/12/18 09:11:58;;;;;;;9.25;3.10;;;;;;;7.16;100.00;103948.13;4957527;28;20114;-74
2021/12/18 09:14:24;;;;;;;9.85;2.35;;;;;;;7.25;100.00;103957.78;4959253;28;20534;-74
2021/12/18 09:16:50;;;;;;;4.20;1.60;;;;;;;7.24;100.00;103956.03;4943434;28;20039;-74
2021/12/18 09:19:16;;;;;;;6.25;1.88;;;;;;;7.15;100.00;103949.03;4957553;28;20034;-74
2021/12/18 09:21:41;;;;;;;4.53;1.55;;;;;;;7.26;100.00;103961.38;4955956;28;20170;-74
2021/12/18 09:24:06;;;;;;;3.38;1.38;;;;;;;7.28;100.00;103956.88;4941451;28;20057;-74
2021/12/18 09:26:32;;;;;;;6.05;1.50;;;;;;;7.28;100.00;103964.91;4943105;28;20023;-74
2021/12/18 09:28:57;;;;;;;3.20;1.27;;;;;;;7.22;100.00;103949.81;4956773;28;20061;-74
2021/12/18 09:31:26;;;;;;;2.85;1.27;;;;;;;7.22;100.00;103951.63;4956481;28;20089;-74
2021/12/18 09:33:51;;;;;;;4.20;1.77;;;;;;;7.23;100.00;103959.59;4953844;28;20482;-74
2021/12/18 09:36:17;;;;;;;1.80;1.10;;;;;;;7.27;100.00;103961.31;4953335;28;20046;-74
2021/12/18 09:38:42;;;;;;;3.22;1.50;;;;;;;7.21;100.00;103950.72;4940251;28;20034;-75
2021/12/18 09:41:07;;;;;;;3.97;1.90;;;;;;;7.38;100.00;103966.53;4956162;28;20050;-74
2021/12/18 09:43:34;;;;;;;5.25;2.25;;;;;;;7.37;100.00;103962.06;4955852;28;20038;-74
2021/12/18 09:46:11;;;;;;;7.75;2.55;;;;;;;7.43;100.00;103963.78;4952710;28;20047;-74
2021/12/18 09:48:38;;;;;;;5.85;2.28;;;;;;;7.42;100.00;103964.69;4956105;28;20069;-74
2021/12/18 09:51:08;;;;;;;3.95;1.67;;;;;;;7.50;100.00;103961.00;4953351;28;20057;-74
2021/12/18 09:53:35;;;;;;;4.20;1.98;;;;;;;7.53;100.00;103959.19;4958784;28;20042;-74
2021/12/18 09:56:02;;;;;;;4.05;1.73;;;;;;;7.47;100.00;103961.06;4939944;28;20027;-74
2021/12/18 09:58:28;;;;;;;6.50;2.35;;;;;;;7.43;100.00;103953.97;4957133;28;20041;-74
2021/12/18 10:00:53;;;;;;;6.07;2.08;;;;;;;7.40;100.00;103946.00;4935917;28;20024;-74
2021/12/18 10:03:18;;;;;;;3.03;1.45;;;;;;;7.43;100.00;103953.06;4955041;28;20096;-75
2021/12/18 10:05:44;;;;;;;4.13;1.90;;;;;;;7.44;100.00;103946.81;4950477;28;20037;-74
2021/12/18 10:08:15;;;;;;;2.30;1.35;;;;;;;7.47;100.00;103950.34;4957309;28;20062;-74
2021/12/18 10:11:02;;;;;;;4.03;1.80;;;;;;;7.48;100.00;103956.56;4938054;28;20069;-74
2021/12/18 10:13:28;;;;;;;3.40;1.60;;;;;;;7.38;100.00;103942.47;4945335;28;20063;-74
2021/12/18 10:16:10;;;;;;;4.15;1.60;;;;;;;7.42;100.00;103943.28;4940718;28;21815;-74
2021/12/18 10:18:36;;;;;;;5.38;3.00;;;;;;;7.37;100.00;103942.50;4936071;28;20136;-74
2021/12/18 10:21:28;;;;;;;11.50;9.48;;;;;;;7.31;100.00;103939.00;4939227;28;20399;-74
2021/12/18 10:23:55;;;;;;;5.50;2.10;;;;;;;7.46;100.00;103939.66;4934001;28;20118;-74
2021/12/18 10:26:37;;;;;;;2.50;1.40;;;;;;;7.46;100.00;103934.31;4955685;28;20037;-73
2021/12/18 10:29:24;;;;;;;2.55;1.27;;;;;;;7.38;100.00;103925.56;4952917;28;20046;-74
2021/12/18 10:31:49;;;;;;;2.63;1.35;;;;;;;7.38;100.00;103929.09;4954036;28;20035;-73
2021/12/18 10:34:21;;;;;;;2.00;1.35;;;;;;;7.40;100.00;103929.09;4954438;28;20700;-74
2021/12/18 10:37:13;;;;;;;2.30;0.95;;;;;;;7.24;100.00;103931.09;4939062;28;20415;-74
2021/12/18 10:39:45;;;;;;;5.38;1.60;;;;;;;7.32;100.00;103931.84;4936115;28;20117;-74
2021/12/18 10:42:25;;;;;;;3.13;1.58;;;;;;;7.38;100.00;103934.44;4953354;28;20061;-73
2021/12/18 10:44:57;;;;;;;1.98;1.10;;;;;;;7.18;100.00;103934.72;4952518;28;20027;-74
2021/12/18 10:47:23;;;;;;;1.90;1.15;;;;;;;7.15;100.00;103924.09;4951566;28;20190;-73
2021/12/18 10:49:48;;;;;;;1.30;1.05;;;;;;;7.01;100.00;103926.97;4940770;28;20107;-74
2021/12/18 10:52:13;;;;;;;2.70;1.50;;;;;;;7.09;100.00;103918.84;4957611;28;20422;-74
2021/12/18 10:54:39;;;;;;;1.58;1.20;;;;;;;7.15;100.00;103926.78;4958160;28;20034;-73
2021/12/18 10:57:04;;;;;;;1.92;1.40;;;;;;;7.07;100.00;103916.16;4958313;28;20050;-74
2021/12/18 10:59:36;;;;;;;3.00;1.52;;;;;;;7.07;100.00;103925.97;4953613;28;20023;-74
2021/12/18 11:02:10;;;;;;;2.38;1.45;;;;;;;7.11;100.00;103917.03;4954606;28;20034;-74
2021/12/18 11:04:40;;;;;;;4.45;1.70;;;;;;;7.10;100.00;103924.16;4951379;28;20419;-74
2021/12/18 11:07:25;;;;;;;3.38;1.50;;;;;;;7.25;100.00;103922.19;4953614;28;21340;-73
2021/12/18 11:15:18;;;;;;;1.63;1.38;;;;;;;7.08;100.00;103919.75;4952309;28;20135;-74
2021/12/18 11:17:44;;;;;;;2.05;1.45;;;;;;;6.99;100.00;103921.63;4954877;28;20134;-74
2021/12/18 11:20:10;;;;;;;2.38;1.58;;;;;;;7.01;100.00;103922.47;4952746;28;20031;-74
2021/12/18 11:22:35;;;;;;;2.75;1.60;;;;;;;7.07;100.00;103910.81;4940426;28;20059;-74
2021/12/18 11:25:03;;;;;;;1.90;1.70;;;;;;;7.09;100.00;103922.38;4949249;28;20046;-74
2021/12/18 11:27:31;;;;;;;3.80;2.13;;;;;;;7.18;100.00;103924.94;4949919;28;20086;-74
2021/12/18 11:30:00;;;;;;;3.35;2.28;;;;;;;7.25;100.00;103924.84;4951394;28;20034;-74
2021/12/18 11:32:29;;;;;;;2.40;1.60;;;;;;;7.14;100.00;103925.88;4952821;28;20038;-73
2021/12/18 11:34:59;;;;;;;2.95;2.08;;;;;;;7.02;100.00;103921.59;4950203;28;20740;-74
2021/12/18 11:37:26;;;;;;;2.80;1.73;;;;;;;7.01;100.00;103919.81;4951939;28;20038;-74
2021/12/18 11:39:55;;;;;;;2.47;1.67;;;;;;;7.03;100.00;103906.41;4934246;28;20054;-74
2021/12/18 11:42:27;;;;;;;1.95;1.65;;;;;;;6.97;100.00;103914.53;4916184;28;20343;-74
2021/12/18 11:44:56;;;;;;;1.42;1.33;;;;;;;6.86;100.00;103910.22;4947774;28;20034;-74
2021/12/18 11:47:37;;;;;;;2.58;1.38;;;;;;;6.97;100.00;103910.06;4931266;28;20045;-74
2021/12/18 11:50:07;;;;;;;3.13;1.73;;;;;;;7.01;100.00;103905.59;4952384;28;20031;-74
2021/12/18 11:53:02;;;;;;;4.47;2.58;;;;;;;6.95;100.00;103895.84;4947742;28;20034;-74
2021/12/18 11:55:32;;;;;;;1.90;1.70;;;;;;;6.96;100.00;103894.06;4932014;28;20069;-74
2021/12/18 11:58:03;;;;;;;3.70;2.65;;;;;;;6.87;100.00;103893.28;4947807;28;20030;-74
2021/12/18 12:00:36;;;;;;;3.15;1.90;;;;;;;6.95;100.00;103887.84;4929638;28;20042;-72